Emiliano Santos

Olheiro-Chefe - Central Espanol
17 Jul 2027
Sábado
Processo

Personalidade

Adaptabilidade (11) Ambição (4) Controvérsia (19) Lealdade (16) Pressão (1) Profissionalismo (20) Espírito Esportivo (10) Temperamento (12)

Perfil

Estilo de Treinamento Democrático
Licença Continental A
Determinação 5
Gestão de Pessoas 5
Motivação 9
Disciplina 3
Satisfação no Trabalho
100%
Fadiga
0%
Função Olheiro-Chefe
Salário 48.9K p/s
Contrato 14.03.2030

Desempenho

Comportamento Bom
Eficácia do Treinamento
32%
Desenvolvimento do Jogador
20%
Prevenção de Lesões
10%
Implementação Tática
35%

Eventos Recentes

Participou de uma reunião de recrutamento 7d atrás
Participou de uma reunião de recrutamento 14d atrás
Participou de uma reunião de recrutamento 21d atrás
Participou de uma reunião de recrutamento 28d atrás
Participou de uma reunião de recrutamento 35d atrás
Participou de uma reunião de recrutamento 42d atrás
Participou de uma reunião de recrutamento 49d atrás
Participou de uma reunião de recrutamento 56d atrás

Monitorando agora

110
Jogador Clube Status Habilidade Confiança Observado Última observação Último voto
Faustino Fernández Colon Ativo 78 / 88 48% 1 12.07.2027 -
Benjamín Núñez Nacional Ativo 104 / 108 48% 1 05.07.2027 -
Freddie Draper Lincoln City Ativo 117 / 122 40% 1 29.11.2026 -
Bojan Radulović Huddersfield Town Ativo 133 / 126 40% 1 29.11.2026 -
Isaac Matondo Koper Ativo 114 / 108 40% 1 28.11.2026 -
Juan Pablo Barinaga Patronato Ativo 109 / 116 40% 1 27.11.2026 -
Kelly Saravanan Salford City Ativo 120 / 106 40% 1 26.11.2026 -
Josh Koroma Leyton Orient Ativo 107 / 115 40% 1 25.11.2026 -
Daniel Kyerewaa Reading Ativo 109 / 106 40% 1 25.11.2026 -
Manu Nieto Andorra Ativo 137 / 129 40% 2 23.11.2026 -
Enzo Larrosa Independiente Medellin Ativo 96 / 113 40% 5 22.11.2026 -
Mihael Mlinarić Zaglebie Ativo 134 / 97 40% 1 22.11.2026 -
Gonzalo Valenzuela Palermo Ativo 91 / 113 40% 1 21.11.2026 -
Félix Villacorta Como Ativo 114 / 95 40% 1 20.11.2026 -
Juan Cruz Zurbriggen San Telmo Ativo 91 / 101 40% 1 17.11.2026 -
Leandro Godoy CSKA Sofia Ativo 114 / 117 40% 1 15.11.2026 -
Gonzalo Córdoba Mitre Ativo 99 / 96 40% 3 14.11.2026 -
Damián Puebla Orenburg Ativo 114 / 129 40% 1 13.11.2026 -
Valentín Fenoglio Estudiantes Ativo 120 / 120 40% 1 13.11.2026 -
Marlon Mustapha Altach Ativo 119 / 116 40% 1 13.11.2026 -
Samuel Kalu Botev Plovdiv Ativo 104 / 110 40% 1 12.11.2026 -
Ignacio Sabatini Gimnasia y Esgrima Ativo 95 / 112 40% 3 11.11.2026 -
Franco Sassone Defensores Ativo 84 / 101 40% 1 10.11.2026 -
Luciano Pereyra Grimsby Town Ativo 98 / 108 40% 1 10.11.2026 -
Francisco Bareiro Vaduz Ativo 98 / 89 40% 3 08.11.2026 -
Anthony Scully Shrewsbury Town Ativo 102 / 100 40% 1 08.11.2026 -
Thiago Perugini San Lorenzo Ativo 102 / 110 40% 3 05.11.2026 -
Gustavo Rigazzi Ravenna Ativo 103 / 96 40% 1 05.11.2026 -
Ronan Hale Gillingham Ativo 121 / 122 40% 1 04.11.2026 -
Carlo Lattanzio San Martín SJ Ativo 103 / 102 40% 2 03.11.2026 -
Fernando Román Defensa y Justicia Ativo 106 / 107 40% 2 03.11.2026 -
Luciano Pascual Godoy Cruz Ativo 117 / 119 40% 1 02.11.2026 -
Joaquín Valiente FC Dallas Ativo 116 / 112 40% 1 02.11.2026 -
Octavio Perdomo Deportivo La Coruña Ativo 78 / 91 40% 1 01.11.2026 -
Aaron Connolly Ruch Ativo 116 / 136 40% 1 01.11.2026 -
Fabricio Oviedo Rosario Central Ativo 99 / 106 40% 4 30.10.2026 -
Matías Gallegos Antofagasta Ativo 96 / 100 40% 2 29.10.2026 -
Jonatan Torres Cerro Porteno Ativo 114 / 121 40% 1 28.10.2026 -
Nahuel Roldán Deportivo La Coruña Ativo 112 / 110 40% 3 24.10.2026 -
Mariano Bracamonte Deportivo Riestra Ativo 119 / 109 40% 1 24.10.2026 -
Gastón Mansilla Maipú Ativo 116 / 112 40% 1 22.10.2026 -
Mauro Peinipil Colón Ativo 123 / 120 40% 1 22.10.2026 -
Oscar Osorio Atletico Venezuela Ativo 117 / 120 40% 1 20.10.2026 -
Franco Troyansky Audax Italiano Ativo 96 / 108 40% 3 19.10.2026 -
Jeremías Lázaro Instituto Ativo 112 / 119 40% 1 19.10.2026 -
Nicolás Henry Tristán Suárez Ativo 119 / 105 40% 1 19.10.2026 -
Agustín Araujo Trujillanos Ativo 107 / 111 40% 2 15.10.2026 -
Bairon Monroy San Marcos de Arica Ativo 98 / 92 40% 1 13.10.2026 -
Brian Andrada Gimnasia y Esgrima Ativo 118 / 114 40% 1 12.10.2026 -
Agustín Venezia Iquique Ativo 103 / 112 40% 5 11.10.2026 -
Juan Ibarrola Argentinos Juniors Ativo 95 / 80 40% 1 11.10.2026 -
Juan Cekalovich Gimnasia y Esgrima Ativo 82 / 99 40% 1 08.10.2026 -
Valentín Robaldo Alianza Atletico Ativo 96 / 105 40% 1 06.10.2026 -
Juan Romero Olimpia Ativo 110 / 113 40% 1 05.10.2026 -
Alejo Cruz Juventud Ativo 107 / 114 40% 1 04.10.2026 -
Luciano Cingolani Gimnasia y Esgrima Ativo 122 / 102 40% 1 02.10.2026 -
Joel Torres San Luis Ativo 79 / 93 40% 1 02.10.2026 -
Lucas González Nacional Ativo 107 / 103 40% 2 30.09.2026 -
Mariano Peralta Bauer Defensa y Justicia Ativo 98 / 100 40% 1 30.09.2026 -
Ramiro Ruiz Rodríguez Atlético Tucumán Ativo 109 / 111 40% 2 29.09.2026 -
Esteban Valencia Cobresal Ativo 99 / 98 40% 1 29.09.2026 -
Bruno Larregui Juventud Ativo 105 / 115 40% 1 29.09.2026 -
Agustín Paz Progreso Ativo 115 / 115 40% 1 28.09.2026 -
Thomas Oliveri Defensa y Justicia Ativo 86 / 92 40% 1 27.09.2026 -
Ignacio Cuello Atlético Tucumán Ativo 71 / 88 40% 2 25.09.2026 -
Julián Brea Cobresal Ativo 109 / 101 40% 1 24.09.2026 -
Bautista Arricau Audax Italiano Ativo 89 / 109 40% 1 22.09.2026 -
Diego González Santos Laguna Ativo 121 / 108 40% 2 21.09.2026 -
Christian Ebere Cruz Azul Ativo 127 / 107 40% 2 21.09.2026 -
Ignacio Giacinti Patronato Ativo 103 / 91 40% 1 20.09.2026 -
Tobías Cervera Cruz Azul Ativo 136 / 113 40% 1 19.09.2026 -
Mateo Seoane Gimnasia La Plata Ativo 117 / 131 40% 1 19.09.2026 -
Facundo de León Progreso Ativo 106 / 99 40% 1 19.09.2026 -
Diego Crego Independiente Rivadavia Ativo 128 / 108 40% 1 18.09.2026 -
Diego Rossi Monterrey Ativo 134 / 144 40% 3 17.09.2026 -
Genaro Rossi San Martín SJ Ativo 104 / 99 40% 2 15.09.2026 -
Oscar Ferraresi Llaneros Ativo 117 / 101 40% 2 15.09.2026 -
Francisco Galván Deportivo Municipal Ativo 104 / 97 40% 1 14.09.2026 -
Jorge Obregón Deportivo Pasto Ativo 115 / 117 40% 2 13.09.2026 -
Maicol Ferreira Danubio Ativo 104 / 96 40% 1 13.09.2026 -
Jano Franco Independiente Rivadavia Ativo 97 / 104 40% 1 09.09.2026 -
Juan Manuel Zapata Envigado Ativo 119 / 114 40% 2 08.09.2026 -
Lautaro Mora Huracán Ativo 96 / 111 40% 1 08.09.2026 -
Nicolás Castro Toluca Ativo 118 / 135 40% 1 06.09.2026 -
Thiago Mastrolorenzo Independiente Ativo 99 / 94 40% 1 06.09.2026 -
Brayan Hurtado Antofagasta Ativo 91 / 90 40% 1 05.09.2026 -
Iván Maggi Sportivo Luqueno Ativo 122 / 114 40% 3 03.09.2026 -
Fabricio Rojas Gimnasia y Tiro Ativo 122 / 109 40% 1 02.09.2026 -
Facundo Velazco San Marcos de Arica Ativo 108 / 98 40% 1 02.09.2026 -
Cristián Gutiérrez Union La Calera Ativo 114 / 102 40% 1 31.08.2026 -
Hugo Palacios Union Magdalena Ativo 104 / 116 40% 1 31.08.2026 -
Mathías Tomás Puebla Ativo 95 / 120 40% 1 28.08.2026 -
Ryan Mmaee Atlas Ativo 124 / 123 40% 1 26.08.2026 -
Marcelo Flores Tigres Ativo 118 / 135 40% 1 23.08.2026 -
Valerio Olivera Instituto Ativo 69 / 95 40% 1 22.08.2026 -
Tiago Benzi Belgrano Ativo 105 / 94 40% 1 20.08.2026 -
Milton Valenzuela Atlas Ativo 108 / 132 40% 1 20.08.2026 -
Iván Cabrera Atletico Venezuela Ativo 114 / 111 40% 1 20.08.2026 -
Francisco Perruzzi Aldosivi Ativo 104 / 116 40% 1 19.08.2026 -
Franco Sivetti Gimnasia y Tiro Ativo 119 / 106 40% 1 19.08.2026 -
Carlos Cantillo Jaguares Ativo 102 / 120 40% 1 18.08.2026 -
Facundo Pimienta Atlético Tucumán Ativo 93 / 103 40% 1 18.08.2026 -
César Magallan Estudiantes de Merida Ativo 104 / 112 40% 1 17.08.2026 -
Mauricio Di Gubio Godoy Cruz Ativo 72 / 84 40% 1 15.08.2026 -
Julián Ceballos Gimnasia y Esgrima Ativo 112 / 115 40% 1 13.08.2026 -
Agustín Pérez Deportivo Tachira Ativo 112 / 101 40% 1 13.08.2026 -
Rodrigo González Estudiantes Ativo 93 / 86 40% 1 10.08.2026 -
Franco Déboli Audax Italiano Ativo 111 / 105 40% 1 04.08.2026 -
Marcos Camarda Santiago Wanderers Ativo 101 / 109 40% 1 03.08.2026 -
Lucas Besozzi Lanús Ativo 102 / 111 40% 1 02.08.2026 -